createdAt,value
2022-10-18T00:01:50.442Z,100.00
2022-10-18T00:04:57.473Z,100.00
2022-10-18T00:08:03.653Z,100.00
2022-10-18T00:11:14.161Z,100.00
2022-10-18T00:14:22.585Z,100.00
2022-10-18T00:17:31.068Z,100.00
2022-10-18T00:20:40.395Z,100.00
2022-10-18T00:23:49.755Z,100.00
2022-10-18T00:26:54.962Z,100.00
2022-10-18T00:30:00.929Z,100.00
2022-10-18T00:33:09.322Z,100.00
2022-10-18T00:36:16.357Z,100.00
2022-10-18T00:39:22.783Z,100.00
2022-10-18T00:42:33.678Z,100.00
2022-10-18T00:45:41.284Z,100.00
2022-10-18T00:48:50.588Z,100.00
2022-10-18T00:52:02.065Z,100.00
2022-10-18T00:55:10.567Z,100.00
2022-10-18T00:58:21.928Z,100.00
2022-10-18T01:01:29.685Z,100.00
2022-10-18T01:04:37.096Z,100.00
2022-10-18T01:08:10.144Z,100.00
2022-10-18T01:11:27.635Z,100.00
2022-10-18T01:14:45.217Z,100.00
2022-10-18T01:17:58.119Z,100.00
2022-10-18T01:21:15.812Z,100.00
2022-10-18T01:24:26.395Z,100.00
2022-10-18T01:27:50.389Z,100.00
2022-10-18T01:30:58.069Z,100.00
2022-10-18T01:34:10.664Z,100.00
2022-10-18T01:37:17.792Z,100.00
2022-10-18T01:40:25.293Z,100.00
2022-10-18T01:43:31.664Z,100.00
2022-10-18T01:46:40.690Z,100.00
2022-10-18T01:49:47.847Z,100.00
2022-10-18T01:52:54.410Z,100.00
2022-10-18T01:56:09.414Z,100.00
2022-10-18T01:59:30.092Z,100.00
2022-10-18T02:02:38.242Z,100.00
2022-10-18T02:05:48.842Z,100.00
2022-10-18T02:09:07.443Z,100.00
2022-10-18T02:12:18.079Z,100.00
2022-10-18T02:15:27.460Z,100.00
2022-10-18T02:18:40.374Z,100.00
2022-10-18T02:21:49.139Z,100.00
2022-10-18T02:24:57.978Z,100.00
2022-10-18T02:28:02.570Z,100.00
2022-10-18T02:31:16.458Z,100.00
2022-10-18T02:34:22.197Z,100.00
2022-10-18T02:37:33.125Z,100.00
2022-10-18T02:40:39.903Z,100.00
2022-10-18T02:43:51.030Z,100.00
2022-10-18T02:46:58.348Z,100.00
2022-10-18T02:50:06.532Z,100.00
2022-10-18T02:53:12.912Z,100.00
2022-10-18T02:56:20.626Z,100.00
2022-10-18T02:59:28.380Z,100.00
2022-10-18T03:02:34.378Z,100.00
2022-10-18T03:05:40.879Z,100.00
2022-10-18T03:08:47.574Z,100.00
2022-10-18T03:11:53.803Z,100.00
2022-10-18T03:15:02.039Z,100.00
2022-10-18T03:18:07.565Z,100.00
2022-10-18T03:21:13.777Z,100.00
2022-10-18T03:24:20.631Z,100.00
2022-10-18T03:27:28.677Z,100.00
2022-10-18T03:30:36.425Z,100.00
2022-10-18T03:33:47.652Z,100.00
2022-10-18T03:36:54.404Z,100.00
2022-10-18T03:40:01.413Z,100.00
2022-10-18T03:43:08.972Z,100.00
2022-10-18T03:46:17.005Z,100.00
2022-10-18T03:49:24.714Z,100.00
2022-10-18T03:52:31.489Z,100.00
2022-10-18T03:55:38.528Z,100.00
2022-10-18T03:58:47.050Z,100.00
2022-10-18T04:01:53.469Z,100.00
2022-10-18T04:05:00.997Z,100.00
2022-10-18T04:08:07.738Z,100.00
2022-10-18T04:11:15.096Z,100.00
2022-10-18T04:14:22.495Z,100.00
2022-10-18T04:17:29.511Z,100.00
2022-10-18T04:20:34.867Z,100.00
2022-10-18T04:23:44.747Z,100.00
2022-10-18T04:26:51.394Z,100.00
2022-10-18T04:30:00.679Z,100.00
2022-10-18T04:33:07.438Z,100.00
2022-10-18T04:36:13.170Z,100.00
2022-10-18T04:39:20.473Z,100.00
2022-10-18T04:42:27.273Z,100.00
2022-10-18T04:45:31.175Z,100.00
2022-10-18T04:48:39.047Z,100.00
2022-10-18T04:51:44.420Z,100.00
2022-10-18T04:54:50.785Z,100.00
2022-10-18T04:57:57.290Z,100.00
2022-10-18T05:01:05.957Z,100.00
2022-10-18T05:04:11.131Z,100.00
2022-10-18T05:07:16.138Z,100.00
2022-10-18T05:10:20.273Z,100.00
2022-10-18T05:13:25.160Z,100.00
2022-10-18T05:16:29.107Z,100.00
2022-10-18T05:19:34.902Z,100.00
2022-10-18T05:22:39.499Z,100.00
2022-10-18T05:25:45.693Z,100.00
2022-10-18T05:28:52.352Z,100.00
2022-10-18T05:31:58.722Z,100.00
2022-10-18T05:35:02.227Z,100.00
2022-10-18T05:38:07.446Z,100.00
2022-10-18T05:41:12.642Z,100.00
2022-10-18T05:44:16.254Z,100.00
2022-10-18T05:47:19.642Z,100.00
2022-10-18T05:50:24.653Z,100.00
2022-10-18T05:53:37.229Z,100.00
2022-10-18T05:56:41.768Z,100.00
2022-10-18T05:59:45.492Z,100.00
2022-10-18T06:02:49.635Z,100.00
2022-10-18T06:05:54.110Z,100.00
2022-10-18T06:08:59.731Z,100.00
2022-10-18T06:12:04.914Z,100.00
2022-10-18T06:15:08.210Z,100.00
2022-10-18T06:18:11.207Z,100.00
2022-10-18T06:21:14.947Z,100.00
2022-10-18T06:24:18.613Z,100.00
2022-10-18T06:27:21.306Z,100.00
2022-10-18T06:30:25.670Z,100.00
2022-10-18T06:33:30.986Z,100.00
2022-10-18T06:36:34.939Z,100.00
2022-10-18T06:39:38.063Z,100.00
2022-10-18T06:42:41.839Z,100.00
2022-10-18T06:45:45.823Z,100.00
2022-10-18T06:48:49.792Z,100.00
2022-10-18T06:51:53.920Z,100.00
2022-10-18T06:54:58.410Z,100.00
2022-10-18T06:58:02.030Z,100.00
2022-10-18T07:01:09.972Z,100.00
2022-10-18T07:04:13.389Z,100.00
2022-10-18T07:07:16.331Z,100.00
2022-10-18T07:10:19.292Z,100.00
2022-10-18T07:13:38.590Z,100.00
2022-10-18T07:16:42.097Z,100.00
2022-10-18T07:19:47.022Z,100.00
2022-10-18T07:22:50.945Z,100.00
2022-10-18T07:25:56.440Z,100.00
2022-10-18T07:29:08.123Z,100.00
2022-10-18T07:32:12.554Z,100.00
2022-10-18T07:35:15.820Z,100.00
2022-10-18T07:38:20.819Z,100.00
2022-10-18T07:41:25.104Z,100.00
2022-10-18T07:44:29.273Z,93.11
2022-10-18T07:47:35.107Z,76.79
2022-10-18T07:50:39.896Z,66.92
2022-10-18T07:53:44.147Z,57.27
2022-10-18T07:56:48.632Z,54.91
2022-10-18T07:59:56.563Z,49.79
2022-10-18T08:03:00.412Z,46.98
2022-10-18T08:06:04.192Z,42.15
2022-10-18T08:09:07.265Z,42.78
2022-10-18T08:12:10.441Z,37.69
2022-10-18T08:15:13.299Z,38.91
2022-10-18T08:18:17.092Z,35.11
2022-10-18T08:21:21.836Z,39.78
2022-10-18T08:24:26.170Z,45.34
2022-10-18T08:27:29.638Z,50.13
2022-10-18T08:30:36.162Z,54.45
2022-10-18T08:33:40.731Z,59.00
2022-10-18T08:36:45.375Z,62.68
2022-10-18T08:39:49.468Z,64.66
2022-10-18T08:43:03.866Z,66.98
2022-10-18T08:46:12.068Z,70.07
2022-10-18T08:49:29.693Z,71.63
2022-10-18T08:52:53.545Z,72.21
2022-10-18T08:56:06.781Z,70.61
2022-10-18T08:59:11.267Z,72.82
2022-10-18T09:02:18.039Z,73.07
2022-10-18T09:05:38.471Z,71.57
2022-10-18T09:08:54.425Z,70.86
2022-10-18T09:12:05.458Z,72.43
2022-10-18T09:15:30.522Z,69.28
2022-10-18T09:18:50.672Z,64.06
2022-10-18T09:22:08.966Z,63.88
2022-10-18T09:25:25.967Z,65.29
2022-10-18T09:28:30.806Z,60.56
2022-10-18T09:31:40.129Z,63.22
2022-10-18T09:34:50.825Z,61.05
2022-10-18T09:37:58.147Z,60.37
2022-10-18T09:41:09.202Z,58.28
2022-10-18T09:44:25.197Z,59.53
2022-10-18T09:50:55.004Z,56.38
2022-10-18T09:54:22.411Z,56.90
2022-10-18T09:57:29.924Z,60.27
2022-10-18T10:00:35.314Z,59.23
2022-10-18T10:03:39.939Z,57.13
2022-10-18T10:06:50.186Z,56.92
2022-10-18T10:09:59.125Z,57.97
2022-10-18T10:13:26.983Z,57.15
2022-10-18T10:16:30.794Z,56.48
2022-10-18T10:19:38.242Z,54.96
2022-10-18T10:22:42.274Z,55.45
2022-10-18T10:26:02.251Z,53.61
2022-10-18T10:29:43.698Z,54.33
2022-10-18T10:32:49.508Z,54.21
2022-10-18T10:35:58.378Z,53.96
2022-10-18T10:39:04.430Z,52.75
2022-10-18T10:42:13.412Z,52.72
2022-10-18T10:45:15.969Z,50.15
2022-10-18T10:48:20.349Z,48.43
2022-10-18T10:51:30.316Z,47.33
2022-10-18T10:54:37.784Z,46.57
2022-10-18T10:57:44.038Z,47.92
2022-10-18T11:00:47.180Z,40.66
2022-10-18T11:03:51.752Z,32.39
2022-10-18T11:07:00.800Z,27.32
2022-10-18T11:10:13.768Z,28.53
2022-10-18T11:13:41.779Z,27.93
2022-10-18T11:16:55.226Z,29.10
2022-10-18T11:20:07.617Z,26.46
2022-10-18T11:23:17.630Z,23.82
2022-10-18T11:26:21.090Z,24.53
2022-10-18T11:29:41.870Z,21.45
2022-10-18T11:32:51.487Z,20.44
2022-10-18T11:35:54.728Z,20.92
2022-10-18T11:39:18.613Z,17.41
2022-10-18T11:42:27.250Z,17.93
2022-10-18T11:45:38.367Z,16.18
2022-10-18T11:48:52.922Z,18.29
2022-10-18T11:52:09.218Z,16.66
2022-10-18T11:55:32.981Z,17.40
2022-10-18T11:58:45.599Z,19.00
2022-10-18T12:01:51.716Z,18.00
2022-10-18T12:05:18.851Z,18.94
2022-10-18T12:08:30.554Z,21.94
2022-10-18T12:11:42.925Z,28.74
2022-10-18T12:14:51.781Z,29.68
2022-10-18T12:17:57.500Z,28.94
2022-10-18T12:21:02.773Z,30.39
2022-10-18T12:24:11.174Z,33.58
2022-10-18T12:27:15.362Z,34.81
2022-10-18T12:30:28.191Z,36.02
2022-10-18T12:33:36.126Z,38.87
2022-10-18T12:36:58.596Z,37.78
2022-10-18T12:40:13.395Z,38.47
2022-10-18T12:43:28.090Z,39.46
2022-10-18T12:46:51.713Z,39.54
2022-10-18T12:50:05.262Z,40.40
2022-10-18T12:53:10.413Z,40.20
2022-10-18T12:56:29.043Z,38.62
2022-10-18T12:59:32.091Z,41.17
2022-10-18T13:02:37.599Z,42.20
2022-10-18T13:05:53.008Z,39.84
2022-10-18T13:09:18.690Z,39.51
2022-10-18T13:12:22.500Z,44.41
2022-10-18T13:15:39.974Z,42.61
2022-10-18T13:18:50.208Z,42.36
2022-10-18T13:22:24.609Z,43.17
2022-10-18T13:25:48.842Z,42.34
2022-10-18T13:29:03.518Z,41.38
2022-10-18T13:32:25.757Z,43.29
2022-10-18T13:35:48.470Z,42.88
2022-10-18T13:39:02.999Z,42.32
2022-10-18T13:42:17.488Z,40.81
2022-10-18T13:45:34.543Z,40.17
2022-10-18T13:48:38.085Z,39.38
2022-10-18T13:51:47.575Z,41.15
2022-10-18T13:55:01.092Z,43.30
2022-10-18T13:58:26.145Z,44.94
2022-10-18T14:01:52.980Z,39.71
2022-10-18T14:05:24.942Z,40.64
2022-10-18T14:08:28.833Z,42.05
2022-10-18T14:11:46.168Z,43.03
2022-10-18T14:15:09.464Z,41.56
2022-10-18T14:18:17.448Z,42.33
2022-10-18T14:21:30.987Z,43.80
2022-10-18T14:24:36.773Z,42.78
2022-10-18T14:27:42.321Z,42.74
2022-10-18T14:30:53.128Z,42.99
2022-10-18T14:33:58.860Z,41.88
2022-10-18T14:37:04.016Z,45.31
2022-10-18T14:40:26.940Z,44.94
2022-10-18T14:43:31.434Z,46.10
2022-10-18T14:46:42.073Z,46.53
2022-10-18T14:49:47.124Z,44.36
2022-10-18T14:52:52.446Z,45.97
2022-10-18T14:55:59.036Z,44.60
2022-10-18T14:59:05.103Z,46.11
2022-10-18T15:02:26.261Z,45.62
2022-10-18T15:05:32.718Z,46.40
2022-10-18T15:08:40.509Z,47.30
2022-10-18T15:11:45.758Z,49.85
2022-10-18T15:14:50.708Z,48.96
2022-10-18T15:17:58.577Z,50.00
2022-10-18T15:21:23.625Z,51.07
2022-10-18T15:24:39.652Z,54.67
2022-10-18T15:27:52.777Z,53.29
2022-10-18T15:31:02.693Z,53.32
2022-10-18T15:34:11.882Z,55.69
2022-10-18T15:37:18.347Z,55.57
2022-10-18T15:40:27.099Z,55.33
2022-10-18T15:43:32.814Z,57.05
2022-10-18T15:46:40.970Z,57.04
2022-10-18T15:49:46.412Z,58.14
2022-10-18T15:52:51.910Z,59.65
2022-10-18T15:56:11.883Z,60.41
2022-10-18T15:59:28.278Z,61.14
2022-10-18T16:02:34.268Z,59.85
2022-10-18T16:05:41.352Z,61.46
2022-10-18T16:08:53.037Z,62.68
2022-10-18T16:12:00.424Z,63.30
2022-10-18T16:15:06.472Z,63.82
2022-10-18T16:18:16.478Z,64.30
2022-10-18T16:21:22.679Z,64.45
2022-10-18T16:24:29.284Z,64.79
2022-10-18T16:27:36.084Z,64.78
2022-10-18T16:30:44.606Z,65.66
2022-10-18T16:33:52.945Z,65.28
2022-10-18T16:37:00.007Z,66.28
2022-10-18T16:40:22.820Z,67.19
2022-10-18T16:43:33.119Z,68.74
2022-10-18T16:46:40.080Z,70.07
2022-10-18T16:49:48.962Z,71.01
2022-10-18T16:52:54.737Z,71.30
2022-10-18T16:56:02.012Z,72.35
2022-10-18T16:59:10.218Z,73.96
2022-10-18T17:02:18.145Z,75.35
2022-10-18T17:05:24.511Z,75.73
2022-10-18T17:08:31.684Z,76.23
2022-10-18T17:11:38.149Z,76.04
2022-10-18T17:14:43.823Z,77.60
2022-10-18T17:17:50.847Z,78.05
2022-10-18T17:21:04.058Z,78.59
2022-10-18T17:24:09.518Z,79.20
2022-10-18T17:27:18.499Z,81.35
2022-10-18T17:30:26.258Z,81.93
2022-10-18T17:33:31.607Z,83.31
2022-10-18T17:36:37.316Z,83.72
2022-10-18T17:39:43.362Z,84.01
2022-10-18T17:42:50.425Z,86.63
2022-10-18T17:45:58.090Z,86.35
2022-10-18T17:49:03.144Z,87.19
2022-10-18T17:52:09.101Z,88.88
2022-10-18T17:55:15.449Z,89.55
2022-10-18T17:58:22.393Z,90.88
2022-10-18T18:01:31.219Z,90.92
2022-10-18T18:04:37.528Z,91.97
2022-10-18T18:07:44.157Z,92.57
2022-10-18T18:10:55.150Z,93.71
2022-10-18T18:14:02.572Z,93.89
2022-10-18T18:17:10.700Z,94.00
2022-10-18T18:20:18.716Z,94.13
2022-10-18T18:23:23.329Z,93.83
2022-10-18T18:26:29.795Z,93.66
2022-10-18T18:29:35.503Z,93.92
2022-10-18T18:32:43.020Z,93.27
2022-10-18T18:36:01.043Z,93.18
2022-10-18T18:39:10.655Z,94.44
2022-10-18T18:42:18.122Z,94.50
2022-10-18T18:45:23.285Z,95.06
2022-10-18T18:48:32.490Z,95.79
2022-10-18T18:51:40.826Z,95.11
2022-10-18T18:54:49.843Z,94.97
2022-10-18T18:57:56.005Z,94.79
2022-10-18T19:01:06.974Z,94.75
2022-10-18T19:04:15.378Z,95.56
2022-10-18T19:07:20.612Z,98.88
2022-10-18T19:10:27.544Z,98.02
2022-10-18T19:13:34.625Z,98.20
2022-10-18T19:16:43.364Z,98.49
2022-10-18T19:19:56.909Z,99.78
2022-10-18T19:23:03.382Z,100.00
2022-10-18T19:26:12.418Z,99.95
2022-10-18T19:29:33.398Z,99.78
2022-10-18T19:32:38.093Z,99.50
2022-10-18T19:35:41.407Z,99.46
2022-10-18T19:38:48.783Z,100.00
2022-10-18T19:41:58.197Z,99.18
2022-10-18T19:45:03.785Z,99.41
2022-10-18T19:48:13.228Z,100.00
2022-10-18T19:51:21.893Z,100.00
2022-10-18T19:54:29.384Z,99.26
2022-10-18T19:57:35.154Z,97.27
2022-10-18T20:00:44.737Z,96.02
2022-10-18T20:03:49.045Z,95.76
2022-10-18T20:06:52.916Z,96.01
2022-10-18T20:09:58.100Z,97.37
2022-10-18T20:13:01.940Z,98.06
2022-10-18T20:16:09.771Z,98.92
2022-10-18T20:19:16.583Z,99.69
2022-10-18T20:22:22.980Z,100.00
2022-10-18T20:25:28.326Z,100.00
2022-10-18T20:28:33.913Z,100.00
2022-10-18T20:31:40.166Z,100.00
2022-10-18T20:34:46.862Z,100.00
2022-10-18T20:37:53.977Z,100.00
2022-10-18T20:41:10.599Z,100.00
2022-10-18T20:44:20.695Z,100.00
2022-10-18T20:47:28.227Z,100.00
2022-10-18T20:50:35.501Z,100.00
2022-10-18T20:53:42.918Z,100.00
2022-10-18T20:56:48.630Z,100.00
2022-10-18T20:59:55.674Z,100.00
2022-10-18T21:03:02.909Z,100.00
2022-10-18T21:06:09.950Z,100.00
2022-10-18T21:09:16.957Z,100.00
2022-10-18T21:12:28.867Z,100.00
2022-10-18T21:15:38.121Z,100.00
2022-10-18T21:18:46.031Z,100.00
2022-10-18T21:21:56.191Z,100.00
2022-10-18T21:25:02.373Z,100.00
2022-10-18T21:28:09.378Z,100.00
2022-10-18T21:31:23.565Z,100.00
2022-10-18T21:34:29.815Z,100.00
2022-10-18T21:37:40.048Z,100.00
2022-10-18T21:40:46.368Z,100.00
2022-10-18T21:43:54.745Z,100.00
2022-10-18T21:46:59.107Z,100.00
2022-10-18T21:50:07.851Z,100.00
2022-10-18T21:53:12.109Z,100.00
2022-10-18T21:56:20.983Z,100.00
2022-10-18T21:59:27.283Z,100.00
2022-10-18T22:02:35.028Z,100.00
2022-10-18T22:05:39.198Z,100.00
2022-10-18T22:08:43.146Z,100.00
2022-10-18T22:11:48.529Z,100.00
2022-10-18T22:14:53.371Z,100.00
2022-10-18T22:17:58.795Z,100.00
2022-10-18T22:21:05.734Z,100.00
2022-10-18T22:24:10.635Z,100.00
2022-10-18T22:27:14.914Z,100.00
2022-10-18T22:30:18.611Z,100.00
2022-10-18T22:33:21.525Z,100.00
2022-10-18T22:36:26.441Z,100.00
2022-10-18T22:39:30.314Z,100.00
2022-10-18T22:42:36.177Z,100.00
2022-10-18T22:45:39.884Z,100.00
2022-10-18T22:48:45.719Z,100.00
2022-10-18T22:51:53.918Z,100.00
2022-10-18T22:55:02.629Z,100.00
2022-10-18T22:58:07.629Z,100.00
2022-10-18T23:01:14.966Z,99.25
2022-10-18T23:04:20.448Z,98.67
2022-10-18T23:07:24.763Z,99.63
2022-10-18T23:10:31.911Z,100.00
2022-10-18T23:13:39.702Z,100.00
2022-10-18T23:16:44.887Z,100.00
2022-10-18T23:19:50.349Z,100.00
2022-10-18T23:22:54.496Z,100.00
2022-10-18T23:26:02.322Z,100.00
2022-10-18T23:29:08.297Z,100.00
2022-10-18T23:32:14.527Z,100.00
2022-10-18T23:35:20.757Z,100.00
2022-10-18T23:38:26.763Z,100.00
2022-10-18T23:41:33.607Z,100.00
2022-10-18T23:44:41.854Z,100.00
2022-10-18T23:47:48.677Z,100.00
2022-10-18T23:50:58.047Z,100.00
2022-10-18T23:54:03.612Z,100.00
2022-10-18T23:57:10.103Z,100.00
